createdAt,value
2017-07-09T00:03:26.798Z,96.22
2017-07-09T00:08:34.539Z,96.80
2017-07-09T00:13:30.991Z,97.66
2017-07-09T00:18:27.881Z,97.66
2017-07-09T00:33:27.119Z,96.99
2017-07-09T00:38:23.018Z,95.75
2017-07-09T00:43:21.213Z,96.22
2017-07-09T00:48:21.819Z,96.08
2017-07-09T00:53:18.100Z,96.22
2017-07-09T00:58:14.916Z,96.47
2017-07-09T01:03:12.001Z,96.42
2017-07-09T01:08:10.121Z,97.56
2017-07-09T01:13:06.183Z,97.19
2017-07-09T01:18:02.802Z,96.94
2017-07-09T01:28:06.351Z,97.86
2017-07-09T01:38:11.621Z,96.89
2017-07-09T01:43:08.988Z,96.89
2017-07-09T01:48:05.516Z,97.95
2017-07-09T01:53:02.620Z,97.38
2017-07-09T01:57:59.255Z,96.99
2017-07-09T02:02:54.952Z,96.51
2017-07-09T02:08:00.131Z,97.19
2017-07-09T02:12:56.569Z,98.91
2017-07-09T02:17:53.843Z,98.82
2017-07-09T02:27:55.504Z,98.72
2017-07-09T02:37:58.858Z,98.72
2017-07-09T02:42:59.171Z,99.49
2017-07-09T02:47:54.940Z,99.99
2017-07-09T02:52:51.903Z,99.20
2017-07-09T02:57:56.616Z,99.99
2017-07-09T03:02:52.058Z,99.99
2017-07-09T03:07:49.201Z,99.99
2017-07-09T03:22:50.126Z,99.99
2017-07-09T03:27:46.154Z,99.99
2017-07-09T03:32:42.194Z,99.99
2017-07-09T03:37:38.225Z,99.99
2017-07-09T03:42:33.980Z,99.99
2017-07-09T03:47:29.801Z,99.99
2017-07-09T03:52:26.365Z,99.99
2017-07-09T03:57:23.079Z,99.99
2017-07-09T04:02:20.407Z,99.99
2017-07-09T04:07:18.184Z,99.99
2017-07-09T04:12:18.275Z,99.99
2017-07-09T04:17:14.468Z,99.99
2017-07-09T04:22:10.949Z,99.99
2017-07-09T04:27:10.279Z,99.99
2017-07-09T04:32:05.572Z,99.99
2017-07-09T04:42:02.359Z,99.99
2017-07-09T04:47:00.265Z,99.99
2017-07-09T04:51:57.237Z,99.99
2017-07-09T05:07:05.701Z,99.99
2017-07-09T05:17:07.449Z,99.99
2017-07-09T05:22:04.899Z,99.99
2017-07-09T05:32:04.403Z,99.99
2017-07-09T05:37:00.117Z,99.99
2017-07-09T05:41:56.602Z,99.99
2017-07-09T05:46:52.888Z,99.99
2017-07-09T05:51:51.092Z,99.99
2017-07-09T05:56:48.421Z,99.99
2017-07-09T06:01:44.029Z,99.99
2017-07-09T06:06:41.006Z,99.99
2017-07-09T06:11:38.911Z,99.99
2017-07-09T06:16:34.251Z,99.99
2017-07-09T06:21:33.624Z,99.99
2017-07-09T06:26:31.128Z,99.99
2017-07-09T06:36:38.318Z,99.99
2017-07-09T06:41:34.129Z,99.99
2017-07-09T06:46:31.362Z,99.99
2017-07-09T06:51:27.320Z,99.30
2017-07-09T06:56:23.889Z,96.75
2017-07-09T07:01:21.297Z,95.70
2017-07-09T07:06:18.567Z,94.45
2017-07-09T07:11:15.550Z,96.42
2017-07-09T07:16:11.695Z,96.66
2017-07-09T07:21:09.225Z,95.79
2017-07-09T07:26:07.125Z,94.40
2017-07-09T07:31:05.512Z,92.67
2017-07-09T07:36:03.424Z,94.45
2017-07-09T07:41:00.653Z,94.35
2017-07-09T07:45:58.345Z,93.15
2017-07-09T07:50:55.231Z,90.98
2017-07-09T07:55:51.638Z,90.16
2017-07-09T08:00:51.098Z,89.97
2017-07-09T08:05:46.746Z,88.53
2017-07-09T08:15:48.418Z,88.76
2017-07-09T08:20:45.453Z,88.57
2017-07-09T08:25:42.866Z,88.67
2017-07-09T08:30:37.913Z,90.16
2017-07-09T08:35:35.333Z,90.01
2017-07-09T08:40:31.299Z,88.85
2017-07-09T08:45:29.002Z,87.80
2017-07-09T08:50:26.317Z,87.46
2017-07-09T08:55:22.663Z,86.49
2017-07-09T09:00:20.036Z,85.47
2017-07-09T09:05:19.045Z,80.10
2017-07-09T09:10:17.904Z,78.36
2017-07-09T09:15:14.784Z,77.25
2017-07-09T09:25:16.745Z,73.74
2017-07-09T09:30:14.189Z,73.59
2017-07-09T09:35:13.769Z,73.84
2017-07-09T09:40:09.700Z,76.53
2017-07-09T09:50:04.719Z,75.10
2017-07-09T09:55:04.398Z,76.06
2017-07-09T09:59:59.403Z,75.29
2017-07-09T10:04:59.161Z,75.74
2017-07-09T10:09:58.837Z,75.10
2017-07-09T10:19:57.693Z,75.64
2017-07-09T10:24:53.048Z,79.72
2017-07-09T10:34:56.672Z,78.17
2017-07-09T10:39:55.937Z,79.52
2017-07-09T10:44:51.625Z,78.21
2017-07-09T10:49:49.293Z,75.93
2017-07-09T10:54:50.301Z,73.68
2017-07-09T10:59:49.243Z,77.38
2017-07-09T11:04:43.243Z,78.15
2017-07-09T11:09:41.071Z,76.51
2017-07-09T11:14:37.922Z,75.45
2017-07-09T11:19:35.255Z,73.94
2017-07-09T11:24:32.562Z,73.84
2017-07-09T11:29:29.542Z,70.92
2017-07-09T11:34:29.407Z,68.60
2017-07-09T11:39:25.305Z,72.36
2017-07-09T11:44:25.119Z,69.27
2017-07-09T11:49:18.562Z,69.50
2017-07-09T11:54:14.040Z,70.04
2017-07-09T11:59:12.478Z,69.31
2017-07-09T12:04:08.848Z,68.27
2017-07-09T12:09:07.371Z,70.50
2017-07-09T12:14:07.709Z,67.27
2017-07-09T12:19:01.241Z,68.95
2017-07-09T12:24:02.050Z,67.11
2017-07-09T12:28:55.429Z,65.62
2017-07-09T12:33:53.513Z,66.20
2017-07-09T12:38:51.474Z,65.53
2017-07-09T12:43:48.712Z,64.75
2017-07-09T12:48:45.583Z,62.62
2017-07-09T12:53:41.790Z,60.84
2017-07-09T12:58:38.970Z,62.19
2017-07-09T13:03:33.818Z,61.75
2017-07-09T13:08:27.504Z,62.82
2017-07-09T13:13:24.470Z,62.88
2017-07-09T13:18:20.531Z,62.98
2017-07-09T13:23:15.625Z,63.62
2017-07-09T13:28:11.906Z,62.59
2017-07-09T13:33:11.806Z,60.49
2017-07-09T13:38:08.246Z,59.48
2017-07-09T13:43:04.313Z,59.67
2017-07-09T13:48:00.577Z,59.90
2017-07-09T13:52:55.932Z,61.36
2017-07-09T13:57:51.808Z,63.13
2017-07-09T14:02:48.778Z,62.13
2017-07-09T14:07:46.167Z,64.59
2017-07-09T14:12:43.221Z,63.31
2017-07-09T14:17:38.483Z,62.66
2017-07-09T14:22:34.343Z,61.24
2017-07-09T14:27:30.421Z,60.10
2017-07-09T14:32:31.623Z,60.55
2017-07-09T14:37:26.201Z,59.59
2017-07-09T14:42:22.015Z,59.39
2017-07-09T14:47:18.740Z,61.59
2017-07-09T14:52:14.489Z,63.37
2017-07-09T14:57:10.880Z,62.20
2017-07-09T15:02:06.837Z,62.59
2017-07-09T15:07:04.046Z,62.59
2017-07-09T15:12:00.301Z,62.66
2017-07-09T15:16:58.249Z,63.43
2017-07-09T15:21:54.501Z,61.79
2017-07-09T15:26:51.974Z,63.43
2017-07-09T15:31:51.058Z,63.14
2017-07-09T15:36:47.265Z,62.07
2017-07-09T15:41:48.746Z,63.34
2017-07-09T15:46:44.656Z,63.24
2017-07-09T15:51:41.130Z,63.62
2017-07-09T15:56:38.028Z,62.72
2017-07-09T16:01:35.232Z,63.04
2017-07-09T16:06:31.955Z,62.56
2017-07-09T16:11:28.307Z,62.82
2017-07-09T16:21:27.351Z,62.07
2017-07-09T16:26:24.167Z,61.79
2017-07-09T16:31:21.030Z,61.21
2017-07-09T16:36:16.759Z,61.40
2017-07-09T16:41:12.627Z,62.53
2017-07-09T16:46:08.766Z,62.56
2017-07-09T16:51:06.257Z,61.46
2017-07-09T16:56:02.012Z,61.85
2017-07-09T17:00:58.633Z,62.85
2017-07-09T17:05:55.119Z,63.59
2017-07-09T17:10:52.099Z,64.17
2017-07-09T17:15:50.001Z,64.47
2017-07-09T17:20:46.822Z,64.37
2017-07-09T17:25:42.369Z,64.34
2017-07-09T17:30:38.258Z,65.40
2017-07-09T17:35:34.392Z,64.92
2017-07-09T17:40:30.423Z,65.40
2017-07-09T17:45:29.646Z,66.17
2017-07-09T17:50:26.234Z,65.59
2017-07-09T17:55:22.824Z,67.43
2017-07-09T18:00:18.418Z,66.75
2017-07-09T18:05:15.757Z,67.59
2017-07-09T18:10:12.354Z,68.37
2017-07-09T18:15:08.725Z,67.79
2017-07-09T18:20:06.545Z,67.30
2017-07-09T18:25:03.273Z,66.91
2017-07-09T18:29:58.821Z,68.49
2017-07-09T18:34:55.726Z,68.66
2017-07-09T18:39:56.450Z,68.85
2017-07-09T18:44:51.880Z,68.95
2017-07-09T18:49:47.654Z,68.33
2017-07-09T18:54:43.539Z,69.49
2017-07-09T18:59:39.434Z,69.59
2017-07-09T19:04:37.245Z,71.14
2017-07-09T19:09:34.142Z,71.39
2017-07-09T19:14:30.714Z,71.87
2017-07-09T19:19:27.325Z,72.64
2017-07-09T19:24:23.416Z,73.13
2017-07-09T19:29:21.136Z,73.32
2017-07-09T19:34:16.509Z,74.48
2017-07-09T19:39:14.658Z,75.51
2017-07-09T19:44:09.993Z,76.86
2017-07-09T19:49:05.932Z,77.25
2017-07-09T19:54:02.774Z,77.25
2017-07-09T19:59:02.891Z,77.88
2017-07-09T20:03:59.012Z,78.56
2017-07-09T20:08:54.826Z,79.33
2017-07-09T20:13:50.870Z,79.62
2017-07-09T20:18:46.801Z,80.45
2017-07-09T20:23:43.141Z,81.02
2017-07-09T20:28:39.707Z,81.51
2017-07-09T20:33:36.689Z,82.34
2017-07-09T20:38:33.807Z,83.50
2017-07-09T20:43:30.572Z,84.17
2017-07-09T20:48:26.719Z,84.94
2017-07-09T20:53:22.204Z,85.28
2017-07-09T20:58:18.304Z,86.19
2017-07-09T21:03:14.842Z,86.82
2017-07-09T21:08:10.778Z,87.02
2017-07-09T21:13:06.821Z,88.37
2017-07-09T21:18:04.039Z,88.08
2017-07-09T21:23:03.187Z,88.56
2017-07-09T21:28:00.276Z,89.33
2017-07-09T21:32:56.962Z,89.67
2017-07-09T21:37:54.640Z,90.54
2017-07-09T21:42:54.092Z,90.92
2017-07-09T21:47:52.352Z,90.64
2017-07-09T21:52:50.170Z,91.46
2017-07-09T21:57:46.886Z,92.22
2017-07-09T22:02:42.927Z,93.00
2017-07-09T22:07:40.060Z,93.57
2017-07-09T22:12:36.999Z,93.67
2017-07-09T22:17:33.773Z,93.48
2017-07-09T22:22:30.031Z,93.96
2017-07-09T22:27:30.207Z,94.64
2017-07-09T22:37:28.113Z,95.12
2017-07-09T22:42:27.139Z,95.12
2017-07-09T22:47:24.645Z,94.87
2017-07-09T22:52:21.447Z,95.74
2017-07-09T22:57:20.948Z,95.84
2017-07-09T23:02:17.961Z,96.03
2017-07-09T23:07:14.169Z,96.80
2017-07-09T23:12:11.104Z,97.38
2017-07-09T23:17:07.814Z,97.28
2017-07-09T23:22:05.461Z,97.86
2017-07-09T23:32:04.749Z,97.81
2017-07-09T23:37:00.605Z,98.10
2017-07-09T23:41:58.196Z,98.77
2017-07-09T23:46:54.647Z,99.78
2017-07-09T23:51:50.607Z,99.99
2017-07-09T23:56:47.571Z,99.99
